createdAt,value
2023-04-14T00:02:03.682Z,3.67
2023-04-14T00:04:31.601Z,3.50
2023-04-14T00:06:59.958Z,3.73
2023-04-14T00:09:27.065Z,3.53
2023-04-14T00:11:54.099Z,3.20
2023-04-14T00:14:21.101Z,3.20
2023-04-14T00:16:48.895Z,3.65
2023-04-14T00:19:16.056Z,3.30
2023-04-14T00:21:43.149Z,3.50
2023-04-14T00:24:10.263Z,3.03
2023-04-14T00:26:37.331Z,3.37
2023-04-14T00:29:04.457Z,3.93
2023-04-14T00:31:31.570Z,3.27
2023-04-14T00:33:58.609Z,3.67
2023-04-14T00:36:25.727Z,3.73
2023-04-14T00:38:52.789Z,3.43
2023-04-14T00:41:20.053Z,3.40
2023-04-14T00:43:47.064Z,3.53
2023-04-14T00:46:16.884Z,3.63
2023-04-14T00:48:43.897Z,3.23
2023-04-14T00:51:10.939Z,3.43
2023-04-14T00:53:38.480Z,3.03
2023-04-14T00:56:05.995Z,2.77
2023-04-14T00:58:33.065Z,2.90
2023-04-14T01:01:00.214Z,3.00
2023-04-14T01:03:27.352Z,3.17
2023-04-14T01:05:54.553Z,3.50
2023-04-14T01:08:22.204Z,3.27
2023-04-14T01:11:07.792Z,2.77
2023-04-14T01:13:34.817Z,3.10
2023-04-14T01:16:04.612Z,3.30
2023-04-14T01:18:36.486Z,2.77
2023-04-14T01:21:07.423Z,3.03
2023-04-14T01:23:41.075Z,3.23
2023-04-14T01:26:11.063Z,3.57
2023-04-14T01:28:56.745Z,3.23
2023-04-14T01:31:45.162Z,4.47
2023-04-14T01:34:29.934Z,4.07
2023-04-14T01:37:06.214Z,3.13
2023-04-14T01:39:36.341Z,3.37
2023-04-14T01:42:05.492Z,3.33
2023-04-14T01:44:33.749Z,2.97
2023-04-14T01:47:05.122Z,3.53
2023-04-14T01:49:34.043Z,3.67
2023-04-14T01:52:02.676Z,3.00
2023-04-14T01:54:30.225Z,4.37
2023-04-14T01:56:57.444Z,3.73
2023-04-14T01:59:25.290Z,4.43
2023-04-14T02:01:52.713Z,3.67
2023-04-14T02:04:21.124Z,3.67
2023-04-14T02:06:48.935Z,3.50
2023-04-14T02:09:16.128Z,3.60
2023-04-14T02:11:43.681Z,4.18
2023-04-14T02:14:11.567Z,4.40
2023-04-14T02:16:38.997Z,5.07
2023-04-14T02:19:07.259Z,4.67
2023-04-14T02:21:35.250Z,4.63
2023-04-14T02:24:02.553Z,4.40
2023-04-14T02:26:32.290Z,4.13
2023-04-14T02:29:03.221Z,4.20
2023-04-14T02:31:31.705Z,5.13
2023-04-14T02:34:01.219Z,4.60
2023-04-14T02:36:32.446Z,4.47
2023-04-14T02:39:01.664Z,4.80
2023-04-14T02:41:32.143Z,4.30
2023-04-14T02:44:06.828Z,4.97
2023-04-14T02:46:39.870Z,7.15
2023-04-14T02:49:07.499Z,5.90
2023-04-14T02:51:38.617Z,5.80
2023-04-14T02:54:06.150Z,5.47
2023-04-14T02:56:33.543Z,5.73
2023-04-14T02:59:02.284Z,6.20
2023-04-14T03:01:29.817Z,5.70
2023-04-14T03:03:57.897Z,6.10
2023-04-14T03:06:26.244Z,4.83
2023-04-14T03:08:54.716Z,6.33
2023-04-14T03:11:22.029Z,5.57
2023-04-14T03:13:51.828Z,5.37
2023-04-14T03:16:21.134Z,5.90
2023-04-14T03:18:49.622Z,5.60
2023-04-14T03:21:18.563Z,5.90
2023-04-14T03:23:46.945Z,5.80
2023-04-14T03:26:18.256Z,7.90
2023-04-14T03:28:48.185Z,6.70
2023-04-14T03:31:16.420Z,6.90
2023-04-14T03:33:43.885Z,6.73
2023-04-14T03:36:11.295Z,6.17
2023-04-14T03:38:38.550Z,5.87
2023-04-14T03:41:07.322Z,6.00
2023-04-14T03:43:34.355Z,5.93
2023-04-14T03:46:02.440Z,6.70
2023-04-14T03:48:31.171Z,6.13
2023-04-14T03:50:58.418Z,6.00
2023-04-14T03:53:25.795Z,5.77
2023-04-14T03:55:53.471Z,5.83
2023-04-14T03:58:21.849Z,5.60
2023-04-14T04:00:49.278Z,6.43
2023-04-14T04:03:17.575Z,5.30
2023-04-14T04:05:45.382Z,4.67
2023-04-14T04:08:13.605Z,5.50
2023-04-14T04:10:41.363Z,5.10
2023-04-14T04:13:11.268Z,4.93
2023-04-14T04:15:39.875Z,4.73
2023-04-14T04:18:08.115Z,5.27
2023-04-14T04:20:39.671Z,5.07
2023-04-14T04:23:07.512Z,5.10
2023-04-14T04:25:36.304Z,5.13
2023-04-14T04:28:03.940Z,4.83
2023-04-14T04:30:33.310Z,5.37
2023-04-14T04:33:03.880Z,5.33
2023-04-14T04:35:32.807Z,5.53
2023-04-14T04:38:01.560Z,5.53
2023-04-14T04:40:28.629Z,6.45
2023-04-14T04:42:55.682Z,6.10
2023-04-14T04:45:41.275Z,5.50
2023-04-14T04:48:08.427Z,5.63
2023-04-14T04:50:35.608Z,5.60
2023-04-14T04:53:02.589Z,5.57
2023-04-14T04:55:29.775Z,5.80
2023-04-14T04:57:56.785Z,4.90
2023-04-14T05:00:26.247Z,5.87
2023-04-14T05:02:53.305Z,5.97
2023-04-14T05:05:20.521Z,5.10
2023-04-14T05:07:47.657Z,5.90
2023-04-14T05:10:14.685Z,5.43
2023-04-14T05:12:41.649Z,5.00
2023-04-14T05:15:09.626Z,7.97
2023-04-14T05:17:37.163Z,8.00
2023-04-14T05:20:05.702Z,7.27
2023-04-14T05:22:33.220Z,6.23
2023-04-14T05:25:00.293Z,6.53
2023-04-14T05:27:27.335Z,6.80
2023-04-14T05:29:54.319Z,6.30
2023-04-14T05:32:22.071Z,6.37
2023-04-14T05:34:49.106Z,6.70
2023-04-14T05:37:16.893Z,7.00
2023-04-14T05:39:44.351Z,5.93
2023-04-14T05:42:11.711Z,5.83
2023-04-14T05:44:38.709Z,5.93
2023-04-14T05:47:05.811Z,6.50
2023-04-14T05:49:32.842Z,5.93
2023-04-14T05:51:59.799Z,5.90
2023-04-14T05:54:26.805Z,6.95
2023-04-14T05:56:53.785Z,6.07
2023-04-14T05:59:20.903Z,6.27
2023-04-14T06:01:49.038Z,7.30
2023-04-14T06:04:16.497Z,5.40
2023-04-14T06:06:43.562Z,6.10
2023-04-14T06:09:10.574Z,5.23
2023-04-14T06:11:38.092Z,6.13
2023-04-14T06:14:07.235Z,6.13
2023-04-14T06:16:34.452Z,6.23
2023-04-14T06:19:01.700Z,6.20
2023-04-14T06:21:28.920Z,5.27
2023-04-14T06:23:55.896Z,6.10
2023-04-14T06:26:22.916Z,5.13
2023-04-14T06:28:49.957Z,5.50
2023-04-14T06:31:16.986Z,4.20
2023-04-14T06:33:43.994Z,4.20
2023-04-14T06:36:11.203Z,4.10
2023-04-14T06:38:38.146Z,4.17
2023-04-14T06:41:05.203Z,3.73
2023-04-14T06:43:32.191Z,3.50
2023-04-14T06:45:58.769Z,3.30
2023-04-14T06:48:26.049Z,3.30
2023-04-14T06:50:56.951Z,2.97
2023-04-14T06:53:23.871Z,3.10
2023-04-14T06:55:59.222Z,2.97
2023-04-14T06:58:27.678Z,2.77
2023-04-14T07:00:57.932Z,2.70
2023-04-14T07:03:25.541Z,2.40
2023-04-14T07:05:52.998Z,2.37
2023-04-14T07:08:20.492Z,3.17
2023-04-14T07:10:47.836Z,2.73
2023-04-14T07:13:14.391Z,2.57
2023-04-14T07:15:46.259Z,3.00
2023-04-14T07:18:12.809Z,3.07
2023-04-14T07:20:39.332Z,2.60
2023-04-14T07:23:05.940Z,2.70
2023-04-14T07:25:36.532Z,2.73
2023-04-14T07:28:04.711Z,2.40
2023-04-14T07:30:31.749Z,2.40
2023-04-14T07:32:58.559Z,2.60
2023-04-14T07:35:26.213Z,2.30
2023-04-14T07:37:52.915Z,2.20
2023-04-14T07:40:19.920Z,2.40
2023-04-14T07:42:49.332Z,2.00
2023-04-14T07:45:16.178Z,2.13
2023-04-14T07:47:42.701Z,2.50
2023-04-14T07:50:09.884Z,2.37
2023-04-14T07:52:37.009Z,2.60
2023-04-14T07:55:04.538Z,2.70
2023-04-14T07:57:31.152Z,2.40
2023-04-14T07:59:57.669Z,2.73
2023-04-14T08:02:24.271Z,2.40
2023-04-14T08:04:50.961Z,2.80
2023-04-14T08:07:17.539Z,2.50
2023-04-14T08:09:44.085Z,2.33
2023-04-14T08:12:10.677Z,2.60
2023-04-14T08:14:37.427Z,2.40
2023-04-14T08:17:03.979Z,2.40
2023-04-14T08:19:31.369Z,1.93
2023-04-14T08:21:57.960Z,2.70
2023-04-14T08:24:24.575Z,1.87
2023-04-14T08:26:51.290Z,2.47
2023-04-14T08:29:17.914Z,2.50
2023-04-14T08:31:44.482Z,2.07
2023-04-14T08:34:11.141Z,2.53
2023-04-14T08:36:38.553Z,2.57
2023-04-14T08:39:05.130Z,2.13
2023-04-14T08:41:34.645Z,2.27
2023-04-14T08:44:01.603Z,2.33
2023-04-14T08:46:28.536Z,2.90
2023-04-14T08:49:02.246Z,2.53
2023-04-14T08:51:34.868Z,2.33
2023-04-14T08:54:04.286Z,2.50
2023-04-14T08:56:34.439Z,2.07
2023-04-14T08:59:01.834Z,2.97
2023-04-14T09:01:29.782Z,2.40
2023-04-14T09:03:57.728Z,2.53
2023-04-14T09:06:25.296Z,2.57
2023-04-14T09:08:52.749Z,2.40
2023-04-14T09:11:19.584Z,2.30
2023-04-14T09:13:49.342Z,2.00
2023-04-14T09:16:17.492Z,2.27
2023-04-14T09:18:47.399Z,2.50
2023-04-14T09:21:33.010Z,2.53
2023-04-14T09:24:03.884Z,2.10
2023-04-14T09:26:30.507Z,2.53
2023-04-14T09:28:57.074Z,2.23
2023-04-14T09:31:24.699Z,2.63
2023-04-14T09:33:53.286Z,2.47
2023-04-14T09:36:22.282Z,2.73
2023-04-14T09:38:50.433Z,2.70
2023-04-14T09:41:27.948Z,2.90
2023-04-14T09:43:54.570Z,2.27
2023-04-14T09:46:21.616Z,2.90
2023-04-14T09:48:52.268Z,2.70
2023-04-14T09:51:23.364Z,2.40
2023-04-14T09:53:52.929Z,2.90
2023-04-14T09:56:20.704Z,3.37
2023-04-14T09:58:50.261Z,2.70
2023-04-14T10:01:20.431Z,2.63
2023-04-14T10:03:48.534Z,2.37
2023-04-14T10:06:17.367Z,2.47
2023-04-14T10:08:48.856Z,2.70
2023-04-14T10:11:29.323Z,2.85
2023-04-14T10:14:01.178Z,2.80
2023-04-14T10:16:27.826Z,2.77
2023-04-14T10:18:55.215Z,3.00
2023-04-14T10:21:25.060Z,2.70
2023-04-14T10:23:52.168Z,2.80
2023-04-14T10:26:19.485Z,2.67
2023-04-14T10:28:54.445Z,2.77
2023-04-14T10:31:26.418Z,2.87
2023-04-14T10:33:53.162Z,3.33
2023-04-14T10:36:28.337Z,2.60
2023-04-14T10:39:03.343Z,2.63
2023-04-14T10:41:51.225Z,3.03
2023-04-14T10:44:28.363Z,2.30
2023-04-14T10:46:56.678Z,2.40
2023-04-14T10:49:33.695Z,2.50
2023-04-14T10:52:06.376Z,2.63
2023-04-14T10:54:49.804Z,2.70
2023-04-14T10:57:17.595Z,2.70
2023-04-14T10:59:47.319Z,2.60
2023-04-14T11:02:33.698Z,2.43
2023-04-14T11:05:05.329Z,2.47
2023-04-14T11:07:38.382Z,2.57
2023-04-14T11:10:17.617Z,2.50
2023-04-14T11:12:45.784Z,1.90
2023-04-14T11:15:12.680Z,2.47
2023-04-14T11:17:40.688Z,2.03
2023-04-14T11:20:18.537Z,2.70
2023-04-14T11:22:46.779Z,3.10
2023-04-14T11:25:20.685Z,2.17
2023-04-14T11:27:48.848Z,3.03
2023-04-14T11:30:17.400Z,2.50
2023-04-14T11:32:48.323Z,2.23
2023-04-14T11:35:15.991Z,2.30
2023-04-14T11:37:43.384Z,2.30
2023-04-14T11:40:12.128Z,2.50
2023-04-14T11:42:43.548Z,2.63
2023-04-14T11:45:10.705Z,2.40
2023-04-14T11:47:37.275Z,2.30
2023-04-14T11:50:05.582Z,2.40
2023-04-14T11:52:34.480Z,2.10
2023-04-14T11:55:01.899Z,2.23
2023-04-14T11:57:28.581Z,2.60
2023-04-14T11:59:56.453Z,2.43
2023-04-14T12:02:23.126Z,2.23
2023-04-14T12:04:51.066Z,1.87
2023-04-14T12:07:19.890Z,2.37
2023-04-14T12:09:48.962Z,2.37
2023-04-14T12:12:17.300Z,2.57
2023-04-14T12:14:46.004Z,9.23
2023-04-14T12:17:15.197Z,2.20
2023-04-14T12:19:42.337Z,2.13
2023-04-14T12:22:09.548Z,1.93
2023-04-14T12:24:37.400Z,1.90
2023-04-14T12:27:06.172Z,2.30
2023-04-14T12:29:33.600Z,2.33
2023-04-14T12:32:01.524Z,1.77
2023-04-14T12:34:29.784Z,2.03
2023-04-14T12:36:56.556Z,2.00
2023-04-14T12:39:25.573Z,2.00
2023-04-14T12:41:52.316Z,1.73
2023-04-14T12:44:20.676Z,1.80
2023-04-14T12:46:51.574Z,1.93
2023-04-14T12:49:37.847Z,1.80
2023-04-14T12:52:05.357Z,2.07
2023-04-14T12:54:48.743Z,2.50
2023-04-14T12:57:15.331Z,1.90
2023-04-14T12:59:43.014Z,1.80
2023-04-14T13:02:10.139Z,1.97
2023-04-14T13:04:36.785Z,1.80
2023-04-14T13:07:03.407Z,2.10
2023-04-14T13:09:31.551Z,1.83
2023-04-14T13:11:58.527Z,1.93
2023-04-14T13:14:25.071Z,1.93
2023-04-14T13:16:52.871Z,1.80
2023-04-14T13:19:20.815Z,1.90
2023-04-14T13:21:47.424Z,2.00
2023-04-14T13:24:14.032Z,1.90
2023-04-14T13:26:40.886Z,1.77
2023-04-14T13:29:07.699Z,1.90
2023-04-14T13:31:34.321Z,1.57
2023-04-14T13:34:00.984Z,1.80
2023-04-14T13:36:27.615Z,1.83
2023-04-14T13:38:56.521Z,2.10
2023-04-14T13:41:24.360Z,2.07
2023-04-14T13:43:50.895Z,2.00
2023-04-14T13:46:19.077Z,2.07
2023-04-14T13:48:46.319Z,1.80
2023-04-14T13:51:12.972Z,1.60
2023-04-14T13:53:39.768Z,1.60
2023-04-14T13:56:06.454Z,1.87
2023-04-14T13:58:33.138Z,2.10
2023-04-14T14:01:09.182Z,1.73
2023-04-14T14:03:38.608Z,1.80
2023-04-14T14:06:05.459Z,2.10
2023-04-14T14:08:32.243Z,2.30
2023-04-14T14:10:58.783Z,1.60
2023-04-14T14:13:25.828Z,1.83
2023-04-14T14:15:52.866Z,1.60
2023-04-14T14:18:19.533Z,1.53
2023-04-14T14:20:47.047Z,1.80
2023-04-14T14:23:15.523Z,2.10
2023-04-14T14:25:42.830Z,2.00
2023-04-14T14:28:09.448Z,2.07
2023-04-14T14:30:36.259Z,2.10
2023-04-14T14:33:03.395Z,1.90
2023-04-14T14:35:30.287Z,2.03
2023-04-14T14:37:57.699Z,1.60
2023-04-14T14:40:25.532Z,2.20
2023-04-14T14:42:52.465Z,1.90
2023-04-14T14:45:30.561Z,1.60
2023-04-14T14:47:58.108Z,2.00
2023-04-14T14:50:24.701Z,2.10
2023-04-14T14:52:51.322Z,1.97
2023-04-14T14:55:17.956Z,2.00
2023-04-14T14:57:44.501Z,2.00
2023-04-14T15:00:11.522Z,1.80
2023-04-14T15:02:38.618Z,2.03
2023-04-14T15:05:07.204Z,1.83
2023-04-14T15:07:33.885Z,1.70
2023-04-14T15:10:01.545Z,1.97
2023-04-14T15:12:28.197Z,1.90
2023-04-14T15:14:54.753Z,2.00
2023-04-14T15:17:21.348Z,1.60
2023-04-14T15:19:48.066Z,1.80
2023-04-14T15:22:14.809Z,1.60
2023-04-14T15:24:41.357Z,2.00
2023-04-14T15:27:07.900Z,1.77
2023-04-14T15:29:34.422Z,1.87
2023-04-14T15:32:01.226Z,1.93
2023-04-14T15:34:28.082Z,1.73
2023-04-14T15:36:54.746Z,1.63
2023-04-14T15:39:21.318Z,1.60
2023-04-14T15:41:50.212Z,1.60
2023-04-14T15:44:16.741Z,1.63
2023-04-14T15:46:43.247Z,1.73
2023-04-14T15:49:09.832Z,1.73
2023-04-14T15:51:36.644Z,1.90
2023-04-14T15:54:04.217Z,1.97
2023-04-14T15:56:31.144Z,1.90
2023-04-14T15:58:57.819Z,1.77
2023-04-14T16:01:24.404Z,1.70
2023-04-14T16:03:52.767Z,1.70
2023-04-14T16:06:19.648Z,1.60
2023-04-14T16:08:46.280Z,1.50
2023-04-14T16:11:16.509Z,1.70
2023-04-14T16:13:46.215Z,2.07
2023-04-14T16:16:14.618Z,1.50
2023-04-14T16:18:41.461Z,1.80
2023-04-14T16:21:08.442Z,1.80
2023-04-14T16:23:35.676Z,1.97
2023-04-14T16:26:02.276Z,1.50
2023-04-14T16:28:28.791Z,1.97
2023-04-14T16:31:01.491Z,1.77
2023-04-14T16:33:28.753Z,1.80
2023-04-14T16:35:56.975Z,1.80
2023-04-14T16:38:23.997Z,2.03
2023-04-14T16:40:55.541Z,1.80
2023-04-14T16:43:26.239Z,1.77
2023-04-14T16:45:52.863Z,1.73
2023-04-14T16:48:19.424Z,1.60
2023-04-14T16:50:49.020Z,1.90
2023-04-14T16:53:15.799Z,1.90
2023-04-14T16:55:43.421Z,1.80
2023-04-14T16:58:09.972Z,1.90
2023-04-14T17:00:37.246Z,2.20
2023-04-14T17:03:04.746Z,2.27
2023-04-14T17:05:31.575Z,1.90
2023-04-14T17:07:58.602Z,1.80
2023-04-14T17:10:26.642Z,1.50
2023-04-14T17:12:53.616Z,2.00
2023-04-14T17:15:20.185Z,1.73
2023-04-14T17:17:46.816Z,1.90
2023-04-14T17:20:14.909Z,1.73
2023-04-14T17:22:41.779Z,1.90
2023-04-14T17:25:09.474Z,2.00
2023-04-14T17:27:36.098Z,1.90
2023-04-14T17:30:04.593Z,2.00
2023-04-14T17:32:32.325Z,1.80
2023-04-14T17:34:59.271Z,1.60
2023-04-14T17:37:26.588Z,2.00
2023-04-14T17:39:53.240Z,2.00
2023-04-14T17:42:19.762Z,1.67
2023-04-14T17:44:46.677Z,1.53
2023-04-14T17:47:15.272Z,1.47
2023-04-14T17:49:42.901Z,1.70
2023-04-14T17:52:10.681Z,1.77
2023-04-14T17:54:37.980Z,1.87
2023-04-14T17:57:04.725Z,1.57
2023-04-14T17:59:31.533Z,1.90
2023-04-14T18:01:58.472Z,2.07
2023-04-14T18:04:25.371Z,1.83
2023-04-14T18:06:52.030Z,2.20
2023-04-14T18:09:18.585Z,1.80
2023-04-14T18:11:46.172Z,2.10
2023-04-14T18:14:12.714Z,2.07
2023-04-14T18:16:39.267Z,1.97
2023-04-14T18:19:05.994Z,1.87
2023-04-14T18:21:32.566Z,2.00
2023-04-14T18:26:29.768Z,1.87
2023-04-14T18:28:56.817Z,1.80
2023-04-14T18:31:23.631Z,2.03
2023-04-14T18:33:50.913Z,1.90
2023-04-14T18:36:17.605Z,1.73
2023-04-14T18:38:44.158Z,2.10
2023-04-14T18:41:11.029Z,2.30
2023-04-14T18:43:37.922Z,2.03
2023-04-14T18:46:04.476Z,2.20
2023-04-14T18:48:32.299Z,2.20
2023-04-14T18:51:02.424Z,2.10
2023-04-14T18:53:30.347Z,1.87
2023-04-14T18:55:58.434Z,2.53
2023-04-14T18:58:26.685Z,1.93
2023-04-14T19:00:54.661Z,2.07
2023-04-14T19:03:23.559Z,3.80
2023-04-14T19:05:52.861Z,2.47
2023-04-14T19:08:21.551Z,2.60
2023-04-14T19:10:49.900Z,2.80
2023-04-14T19:13:17.980Z,2.50
2023-04-14T19:15:45.978Z,2.40
2023-04-14T19:18:14.947Z,2.87
2023-04-14T19:20:43.037Z,2.77
2023-04-14T19:23:11.830Z,2.10
2023-04-14T19:25:41.521Z,2.50
2023-04-14T19:28:16.337Z,2.30
2023-04-14T19:30:45.652Z,2.43
2023-04-14T19:33:13.930Z,2.50
2023-04-14T19:35:44.136Z,2.23
2023-04-14T19:38:12.444Z,2.60
2023-04-14T19:40:40.602Z,2.23
2023-04-14T19:43:08.917Z,2.57
2023-04-14T19:45:37.206Z,2.50
2023-04-14T19:48:19.892Z,2.17
2023-04-14T19:50:51.975Z,2.10
2023-04-14T19:53:20.286Z,2.63
2023-04-14T19:55:56.797Z,4.13
2023-04-14T19:58:32.704Z,5.03
2023-04-14T20:01:17.520Z,4.40
2023-04-14T20:04:08.227Z,4.20
2023-04-14T20:06:53.245Z,3.20
2023-04-14T20:09:34.585Z,2.90
2023-04-14T20:12:19.872Z,2.80
2023-04-14T20:14:58.679Z,2.80
2023-04-14T20:17:44.041Z,3.53
2023-04-14T20:20:28.298Z,3.87
2023-04-14T20:23:09.499Z,3.60
2023-04-14T20:25:56.167Z,3.00
2023-04-14T20:28:42.722Z,3.63
2023-04-14T20:31:32.271Z,3.60
2023-04-14T20:33:59.284Z,3.57
2023-04-14T20:36:26.308Z,3.30
2023-04-14T20:38:53.301Z,3.63
2023-04-14T20:41:20.496Z,3.73
2023-04-14T20:43:47.496Z,3.60
2023-04-14T20:46:14.466Z,4.10
2023-04-14T20:48:42.262Z,3.57
2023-04-14T20:51:09.251Z,3.33
2023-04-14T20:54:18.150Z,3.53
2023-04-14T20:57:27.107Z,3.57
2023-04-14T21:00:35.573Z,4.00
2023-04-14T21:03:44.479Z,3.60
2023-04-14T21:06:52.778Z,3.60
2023-04-14T21:10:01.388Z,4.33
2023-04-14T21:15:44.343Z,4.57
2023-04-14T21:16:38.921Z,4.70
2023-04-14T21:19:47.013Z,5.03
2023-04-14T21:22:56.240Z,4.47
2023-04-14T21:26:04.371Z,4.43
2023-04-14T21:29:13.319Z,4.63
2023-04-14T21:31:42.611Z,4.60
2023-04-14T21:34:10.492Z,3.97
2023-04-14T21:36:37.515Z,4.30
2023-04-14T21:39:04.882Z,3.70
2023-04-14T21:41:32.631Z,3.77
2023-04-14T21:43:59.672Z,3.90
2023-04-14T21:46:27.076Z,4.27
2023-04-14T21:48:54.155Z,3.67
2023-04-14T21:51:21.190Z,4.00
2023-04-14T21:53:48.219Z,4.10
2023-04-14T21:56:15.234Z,4.27
2023-04-14T21:58:42.287Z,5.10
2023-04-14T22:01:10.199Z,4.80
2023-04-14T22:03:40.533Z,4.97
2023-04-14T22:06:08.036Z,4.77
2023-04-14T22:08:35.063Z,5.90
2023-04-14T22:11:02.067Z,4.97
2023-04-14T22:13:29.080Z,5.27
2023-04-14T22:15:56.566Z,5.90
2023-04-14T22:18:24.224Z,5.70
2023-04-14T22:20:51.247Z,4.87
2023-04-14T22:23:18.229Z,5.83
2023-04-14T22:25:45.284Z,5.50
2023-04-14T22:28:12.284Z,5.40
2023-04-14T22:30:39.331Z,5.63
2023-04-14T22:33:06.834Z,6.20
2023-04-14T22:35:33.892Z,5.87
2023-04-14T22:38:01.235Z,5.07
2023-04-14T22:40:28.214Z,5.33
2023-04-14T22:42:55.312Z,4.93
2023-04-14T22:45:22.258Z,5.17
2023-04-14T22:47:49.490Z,4.63
2023-04-14T22:50:16.712Z,5.73
2023-04-14T22:52:43.738Z,5.00
2023-04-14T22:55:11.697Z,4.63
2023-04-14T22:57:38.774Z,5.20
2023-04-14T23:00:09.032Z,4.70
2023-04-14T23:02:36.596Z,4.57
2023-04-14T23:05:04.105Z,4.47
2023-04-14T23:07:31.107Z,5.35
2023-04-14T23:09:58.392Z,5.00
2023-04-14T23:12:25.454Z,4.47
2023-04-14T23:14:52.504Z,4.77
2023-04-14T23:17:19.557Z,4.80
2023-04-14T23:19:46.797Z,4.77
2023-04-14T23:22:15.131Z,4.60
2023-04-14T23:24:42.767Z,4.53
2023-04-14T23:27:09.750Z,4.13
2023-04-14T23:29:37.552Z,4.70
2023-04-14T23:32:05.381Z,4.63
2023-04-14T23:34:32.461Z,4.60
2023-04-14T23:36:59.535Z,4.70
2023-04-14T23:39:26.524Z,4.70
2023-04-14T23:41:53.524Z,4.70
2023-04-14T23:44:20.719Z,4.70
2023-04-14T23:46:47.971Z,5.38
2023-04-14T23:49:23.390Z,4.73
2023-04-14T23:51:52.636Z,4.47
2023-04-14T23:54:19.615Z,4.77
2023-04-14T23:56:47.190Z,4.83
2023-04-14T23:59:14.151Z,4.27
